Terminal Aerodrome Forecast
Issued by NWS Tampa Bay Area, FL

Home | Current Version | Previous Version | Text Only | Print | Product List | Glossary On
Versions: 1 2 3 4 5 6 7 8 9 10 11 12 13 14 15
631
FTUS42 KTBW 201725
TAFFMY
TAF
KFMY 201725Z 2018/2118 11006KT P6SM FEW050
     FM202100 27004KT P6SM FEW100
     FM210300 00000KT P6SM SCT045
     FM211500 11008KT P6SM FEW250=

USA.gov is the U.S. government's official web portal to all federal, state and local government web resources and services.